• Join FlightAware (Why Join?)
  • Login
  • US Flag 
03:13PM EDT


 

Airport Tracker/Info


-or-


 

Live Flight TrackerFlight Track Log ✈ AAL993 ✈ 07-Sep-2013 ✈ KMIA - MNMG / MGA

Flight Track Log - Related Links

Times and Time Zones

All times are in EDT time to prevent confusion due to time zone crossing. See the AAL993 flight status page for this flight to view local times or setup timezone preferences in your user account.

Time Position Orientation Groundspeed Altitude Reporting Facility
EDT Latitude Longitude Course Direction KTS MPH feet Rate Location/Type
08:11PM 25.2147 -80.5648 203° Southwest  Level Estimated
08:12PM 25.1179 -80.6103 203° Southwest  Level Estimated
08:13PM 25.0210 -80.6558 203° Southwest  Level Estimated
08:14PM 24.9242 -80.7012 203° Southwest  Level Estimated
08:15PM 24.8273 -80.7465 203° Southwest  Level Estimated
08:16PM 24.7304 -80.7917 203° Southwest  Level Estimated
08:17PM 24.6335 -80.8369 203° Southwest  Level Estimated
08:18PM 24.5366 -80.8820 203° Southwest  Level Estimated
08:19PM 24.4397 -80.9270 203° Southwest  Level Estimated
08:20PM 24.3427 -80.9720 203° Southwest  Level Estimated
08:21PM 24.2458 -81.0169 203° Southwest  Level Estimated
08:22PM 24.1488 -81.0617 203° Southwest  Level Estimated
08:23PM 24.0518 -81.1065 203° Southwest  Level Estimated
08:24PM 23.9549 -81.1512 203° Southwest  Level Estimated
08:25PM 23.8579 -81.1958 203° Southwest  Level Estimated
08:26PM 23.7487 -81.2459 203° Southwest  Level Estimated
08:26PM 23.6020 -80.8690 203° Southwest 439 505 37,000  Level FlightAware
08:27PM 23.5130 -80.8830 188° South 439 505 37,000  Level FlightAware
08:28PM 23.4060 -80.9000 188° South 439 505 37,000  Level FlightAware
08:28PM 23.3450 -80.9090 188° South 439 505 37,000  Level FlightAware
08:29PM 23.2810 -80.9190 188° South 439 505 37,000  Level FlightAware
08:29PM 23.2200 -80.9280 188° South 439 505 37,000  Level FlightAware
08:30PM 23.1580 -80.9380 188° South 439 505 37,000  Level FlightAware
08:31PM 23.0970 -80.9470 188° South 439 505 37,000  Level FlightAware
08:31PM 23.0330 -80.9570 188° South 439 505 37,000  Level FlightAware
08:32PM 22.9700 -80.9670 188° South 439 505 37,000  Level FlightAware
08:32PM 22.9090 -80.9760 188° South 439 505 37,000  Level FlightAware
08:33PM 22.8470 -80.9850 188° South 439 505 37,000  Level FlightAware
08:34PM 22.7860 -80.9950 189° South 439 505 37,000  Level FlightAware
08:34PM 22.7240 -81.0040 188° South 439 505 37,000  Level FlightAware
08:35PM 22.6620 -81.0130 188° South 439 505 37,000  Level FlightAware
08:35PM 22.6010 -81.0230 189° South 439 505 37,000  Level FlightAware
08:36PM 22.5390 -81.0320 188° South 439 505 37,000  Level FlightAware
08:37PM 22.4780 -81.0420 189° South 439 505 37,000  Level FlightAware
08:39PM 22.2761 -81.1491 206° Southwest  Level Estimated
08:40PM 22.1698 -81.2054 206° Southwest  Level Estimated
08:41PM 22.0634 -81.2615 206° Southwest  Level Estimated
08:42PM 21.9571 -81.3176 206° Southwest  Level Estimated
08:43PM 21.8507 -81.3736 206° Southwest  Level Estimated
08:44PM 21.7443 -81.4295 206° Southwest  Level Estimated
08:45PM 21.6379 -81.4853 206° Southwest  Level Estimated
08:46PM 21.5315 -81.5411 206° Southwest  Level Estimated
08:47PM 21.4250 -81.5968 206° Southwest  Level Estimated
08:48PM 21.3186 -81.6524 206° Southwest  Level Estimated
08:49PM 21.2121 -81.7079 206° Southwest  Level Estimated
08:50PM 21.1056 -81.7633 206° Southwest  Level Estimated
08:51PM 20.9991 -81.8186 206° Southwest  Level Estimated
08:52PM 20.8925 -81.8739 206° Southwest  Level Estimated
08:53PM 20.7860 -81.9291 206° Southwest  Level Estimated
08:54PM 20.6794 -81.9842 206° Southwest  Level Estimated
08:55PM 20.5728 -82.0392 206° Southwest  Level Estimated
08:56PM 20.4662 -82.0942 206° Southwest  Level Estimated
08:57PM 20.3596 -82.1491 206° Southwest  Level Estimated
08:58PM 20.2530 -82.2039 206° Southwest  Level Estimated
08:59PM 20.1463 -82.2586 206° Southwest  Level Estimated
09:00PM 20.0396 -82.3132 206° Southwest  Level Estimated
09:01PM 19.9329 -82.3678 206° Southwest  Level Estimated
09:02PM 19.8262 -82.4223 206° Southwest  Level Estimated
09:03PM 19.7195 -82.4768 206° Southwest  Level Estimated
09:04PM 19.6128 -82.5311 206° Southwest  Level Estimated
09:05PM 19.5114 -82.5827 206° Southwest  Level Estimated
09:06PM 19.4099 -82.6342 206° Southwest  Level Estimated
09:07PM 19.3085 -82.6857 206° Southwest  Level Estimated
09:08PM 19.2070 -82.7371 206° Southwest  Level Estimated
09:09PM 19.1056 -82.7884 206° Southwest  Level Estimated
09:10PM 19.0041 -82.8396 206° Southwest  Level Estimated
09:11PM 18.9026 -82.8908 206° Southwest  Level Estimated
09:12PM 18.8010 -82.9419 205° Southwest  Level Estimated
09:13PM 18.6995 -82.9930 205° Southwest  Level Estimated
09:14PM 18.5980 -83.0440 205° Southwest  Level Estimated
09:15PM 18.4964 -83.0950 205° Southwest  Level Estimated
09:16PM 18.3948 -83.1459 205° Southwest  Level Estimated
09:17PM 18.2932 -83.1967 205° Southwest  Level Estimated
09:18PM 18.1917 -83.2475 205° Southwest  Level Estimated
09:19PM 18.0900 -83.2982 205° Southwest  Level Estimated
09:20PM 17.9884 -83.3488 205° Southwest  Level Estimated
09:21PM 17.8868 -83.3994 205° Southwest  Level Estimated
09:22PM 17.7851 -83.4500 205° Southwest  Level Estimated
09:23PM 17.6835 -83.5004 205° Southwest  Level Estimated
09:24PM 17.5818 -83.5508 205° Southwest  Level Estimated
09:25PM 17.4801 -83.6012 205° Southwest  Level Estimated
09:26PM 17.3784 -83.6515 205° Southwest  Level Estimated
09:27PM 17.2745 -83.7029 205° Southwest  Level Estimated
09:28PM 17.1705 -83.7542 205° Southwest  Level Estimated
09:29PM 17.0665 -83.8054 205° Southwest  Level Estimated
09:30PM 16.9625 -83.8566 205° Southwest  Level Estimated
09:31PM 16.8585 -83.9077 205° Southwest  Level Estimated
09:32PM 16.7545 -83.9588 205° Southwest  Level Estimated
09:33PM 16.6505 -84.0098 205° Southwest  Level Estimated
09:34PM 16.5465 -84.0607 205° Southwest  Level Estimated
09:35PM 16.4424 -84.1116 205° Southwest  Level Estimated
09:36PM 16.3384 -84.1625 205° Southwest  Level Estimated
09:37PM 16.2343 -84.2133 205° Southwest  Level Estimated
09:38PM 16.1302 -84.2640 205° Southwest  Level Estimated
09:39PM 16.0261 -84.3147 205° Southwest  Level Estimated
09:40PM 15.9220 -84.3653 205° Southwest  Level Estimated
09:41PM 15.8179 -84.4159 205° Southwest  Level Estimated
09:42PM 15.7138 -84.4664 205° Southwest  Level Estimated
09:43PM 15.6104 -84.5165 205° Southwest  Level Estimated
09:44PM 15.5070 -84.5666 205° Southwest  Level Estimated
09:45PM 15.4036 -84.6166 205° Southwest  Level Estimated
09:46PM 15.3002 -84.6666 205° Southwest  Level Estimated
09:47PM 15.1967 -84.7165 205° Southwest  Level Estimated
09:48PM 15.0933 -84.7663 205° Southwest  Level Estimated
09:49PM 14.9899 -84.8161 205° Southwest  Level Estimated
09:50PM 14.8864 -84.8659 205° Southwest  Level Estimated
09:51PM 14.7829 -84.9156 205° Southwest  Level Estimated
09:52PM 14.6794 -84.9653 205° Southwest  Level Estimated
09:53PM 14.5759 -85.0149 205° Southwest  Level Estimated
09:54PM 14.4724 -85.0645 205° Southwest  Level Estimated
09:55PM 14.3689 -85.1140 205° Southwest  Level Estimated
09:56PM 14.2654 -85.1635 205° Southwest  Level Estimated
09:57PM 14.1618 -85.2129 205° Southwest  Level Estimated
09:58PM 14.0583 -85.2623 205° Southwest  Level Estimated
09:59PM 13.9547 -85.3117 205° Southwest  Level Estimated
10:00PM 13.8512 -85.3610 205° Southwest  Level Estimated
10:01PM 13.7476 -85.4102 205° Southwest  Level Estimated
10:02PM 13.6440 -85.4594 205° Southwest  Level Estimated
10:03PM 13.5404 -85.5086 205° Southwest  Level Estimated
10:04PM 13.4368 -85.5577 205° Southwest  Level Estimated
10:05PM 13.3332 -85.6068 205° Southwest  Level Estimated
10:06PM 13.2296 -85.6559 205° Southwest  Level Estimated
10:07PM 13.1259 -85.7049 205° Southwest  Level Estimated
10:08PM 13.0223 -85.7539 205° Southwest  Level Estimated
10:09PM 12.9186 -85.8028 205° Southwest  Level Estimated
10:10PM 12.8150 -85.8516 205° Southwest  Level Estimated
10:11PM 12.7113 -85.9005 205° Southwest  Level Estimated
10:12PM 12.6076 -85.9493 205° Southwest  Level Estimated
10:13PM 12.5039 -85.9980 205° Southwest  Level Estimated
10:14PM 12.4003 -86.0468 205° Southwest  Level Estimated
10:15PM 12.2965 -86.0955 205° Southwest  Level Estimated
10:16PM 12.1928 -86.1441 205° Southwest  Level Estimated
10:17PM 12.1415 -86.1682 205° Southwest  Level Estimated
10:18PM 12.1415 -86.1682 26° Northeast  Level Estimated
10:19PM 12.1415 -86.1682 26° Northeast  Level Estimated
10:20PM 12.1415 -86.1682 26° Northeast  Level Estimated
10:21PM 12.1415 -86.1682 26° Northeast  Level Estimated
10:22PM 12.1415 -86.1682 26° Northeast  Level Estimated
10:23PM 12.1415 -86.1682 26° Northeast  Level Estimated
10:24PM 12.1415 -86.1682 26° Northeast  Level Estimated
10:25PM 12.1415 -86.1682 26° Northeast  Level Estimated
10:26PM 12.1415 -86.1682 26° Northeast  Level Estimated
10:27PM 12.1415 -86.1682 26° Northeast  Level Estimated